createdAt,value
2019-04-23T00:00:26.703Z,156.02
2019-04-23T00:05:41.909Z,156.00
2019-04-23T00:08:17.516Z,158.27
2019-04-23T00:13:12.448Z,155.57
2019-04-23T00:15:49.576Z,153.97
2019-04-23T00:18:12.467Z,154.75
2019-04-23T00:20:43.141Z,154.87
2019-04-23T00:23:10.676Z,154.90
2019-04-23T00:26:02.043Z,158.20
2019-04-23T00:28:35.925Z,154.82
2019-04-23T00:31:06.319Z,155.07
2019-04-23T00:33:32.737Z,155.90
2019-04-23T00:35:55.149Z,155.37
2019-04-23T00:38:36.558Z,154.72
2019-04-23T00:40:58.232Z,155.15
2019-04-23T00:43:28.899Z,155.93
2019-04-23T00:48:45.413Z,157.72
2019-04-23T00:53:23.507Z,155.43
2019-04-23T00:56:03.882Z,156.47
2019-04-23T00:58:31.908Z,155.60
2019-04-23T01:00:54.022Z,155.25
2019-04-23T01:03:17.480Z,158.47
2019-04-23T01:05:48.890Z,155.65
2019-04-23T01:08:18.496Z,155.60
2019-04-23T01:11:03.289Z,154.70
2019-04-23T01:13:36.306Z,155.52
2019-04-23T01:18:49.129Z,155.82
2019-04-23T01:20:54.162Z,157.27
2019-04-23T01:23:42.612Z,155.00
2019-04-23T01:26:26.803Z,156.22
2019-04-23T01:29:01.403Z,155.12
2019-04-23T01:31:29.335Z,155.35
2019-04-23T01:33:59.434Z,154.87
2019-04-23T01:36:25.272Z,155.48
2019-04-23T01:39:00.406Z,155.52
2019-04-23T01:41:31.187Z,154.97
2019-04-23T01:43:50.327Z,156.12
2019-04-23T01:46:28.940Z,155.97
2019-04-23T01:48:52.068Z,155.67
2019-04-23T01:51:27.804Z,156.30
2019-04-23T01:53:50.042Z,156.02
2019-04-23T01:58:51.857Z,155.67
2019-04-23T02:01:20.806Z,155.80
2019-04-23T02:08:47.088Z,157.32
2019-04-23T02:11:14.086Z,156.52
2019-04-23T02:13:51.574Z,156.87
2019-04-23T02:16:10.578Z,157.43
2019-04-23T02:18:41.654Z,155.85
2019-04-23T02:21:15.447Z,155.93
2019-04-23T02:23:54.763Z,155.63
2019-04-23T02:26:38.476Z,156.00
2019-04-23T02:31:45.114Z,156.15
2019-04-23T02:34:00.488Z,156.30
2019-04-23T02:36:26.392Z,158.18
2019-04-23T02:38:58.123Z,157.82
2019-04-23T02:41:26.731Z,157.55
2019-04-23T02:43:59.118Z,157.97
2019-04-23T02:46:31.790Z,156.72
2019-04-23T02:51:29.038Z,159.43
2019-04-23T02:56:33.046Z,157.62
2019-04-23T02:58:54.490Z,156.30
2019-04-23T03:06:14.841Z,155.43
2019-04-23T03:08:46.278Z,155.65
2019-04-23T03:11:24.980Z,155.37
2019-04-23T03:14:00.304Z,155.18
2019-04-23T03:19:31.976Z,155.07
2019-04-23T03:22:09.906Z,154.50
2019-04-23T03:25:21.327Z,157.00
2019-04-23T03:30:16.339Z,154.63
2019-04-23T03:33:08.299Z,154.95
2019-04-23T03:47:37.286Z,154.95
2019-04-23T04:05:03.481Z,155.70
2019-04-23T04:07:43.839Z,156.00
2019-04-23T04:09:59.630Z,156.47
2019-04-23T04:15:04.288Z,155.75
2019-04-23T04:25:21.318Z,154.53
2019-04-23T04:27:38.424Z,155.40
2019-04-23T04:30:01.167Z,154.60
2019-04-23T04:32:33.427Z,157.30
2019-04-23T04:42:14.833Z,157.93
2019-04-23T04:45:07.472Z,158.10
2019-04-23T04:47:28.045Z,156.35
2019-04-23T04:49:55.778Z,156.32
2019-04-23T04:52:34.898Z,157.43
2019-04-23T04:55:00.123Z,156.70
2019-04-23T05:00:06.735Z,158.65
2019-04-23T05:02:28.336Z,158.03
2019-04-23T05:07:20.137Z,155.55
2019-04-23T05:10:01.701Z,157.03
2019-04-23T05:14:52.743Z,158.42
2019-04-23T05:17:32.350Z,159.67
2019-04-23T05:19:57.460Z,156.37
2019-04-23T05:22:22.579Z,157.15
2019-04-23T05:24:45.239Z,157.27
2019-04-23T05:27:21.800Z,157.37
2019-04-23T05:29:54.332Z,157.95
2019-04-23T05:32:25.128Z,157.88
2019-04-23T05:34:50.437Z,157.40
2019-04-23T05:37:25.403Z,156.97
2019-04-23T05:39:49.884Z,157.37
2019-04-23T05:42:19.773Z,156.93
2019-04-23T05:44:43.299Z,156.55
2019-04-23T05:47:17.439Z,157.90
2019-04-23T05:49:47.444Z,157.30
2019-04-23T05:52:17.911Z,156.93
2019-04-23T05:54:44.700Z,156.47
2019-04-23T05:57:06.635Z,156.75
2019-04-23T05:59:34.244Z,160.07
2019-04-23T06:02:07.598Z,161.15
2019-04-23T06:04:38.249Z,156.93
2019-04-23T06:07:25.030Z,159.52
2019-04-23T06:09:33.575Z,158.87
2019-04-23T06:12:16.887Z,159.22
2019-04-23T06:14:32.743Z,157.60
2019-04-23T06:17:15.929Z,158.65
2019-04-23T06:19:48.332Z,156.43
2019-04-23T06:22:25.269Z,159.85
2019-04-23T06:24:45.042Z,158.60
2019-04-23T06:27:22.054Z,158.85
2019-04-23T06:29:43.222Z,158.20
2019-04-23T06:32:15.929Z,157.03
2019-04-23T06:34:50.211Z,157.72
2019-04-23T06:37:24.720Z,158.57
2019-04-23T06:42:14.580Z,158.75
2019-04-23T06:44:51.776Z,159.50
2019-04-23T06:47:12.934Z,159.45
2019-04-23T06:52:20.601Z,160.85
2019-04-23T06:54:47.670Z,162.25
2019-04-23T06:57:20.761Z,161.15
2019-04-23T06:59:47.100Z,162.60
2019-04-23T07:02:22.271Z,160.40
2019-04-23T07:07:41.029Z,161.65
2019-04-23T07:09:43.884Z,161.18
2019-04-23T07:12:16.624Z,161.52
2019-04-23T07:17:08.880Z,160.93
2019-04-23T07:19:42.478Z,161.40
2019-04-23T07:25:03.262Z,160.15
2019-04-23T07:27:14.879Z,159.95
2019-04-23T07:29:40.475Z,161.37
2019-04-23T07:32:11.950Z,160.22
2019-04-23T07:34:49.518Z,159.50
2019-04-23T07:37:15.477Z,160.95
2019-04-23T07:40:24.445Z,161.20
2019-04-23T07:42:38.779Z,161.60
2019-04-23T07:48:10.960Z,161.57
2019-04-23T07:50:51.123Z,163.32
2019-04-23T07:53:12.896Z,163.70
2019-04-23T07:58:14.308Z,161.12
2019-04-23T08:03:19.076Z,160.35
2019-04-23T08:05:42.452Z,161.62
2019-04-23T08:08:07.291Z,163.97
2019-04-23T08:10:35.718Z,162.40
2019-04-23T08:13:16.123Z,163.92
2019-04-23T08:15:42.977Z,160.95
2019-04-23T08:18:13.648Z,162.80
2019-04-23T08:20:42.214Z,164.07
2019-04-23T08:23:40.464Z,160.65
2019-04-23T08:29:06.480Z,164.62
2019-04-23T08:31:32.048Z,163.07
2019-04-23T08:34:09.169Z,163.28
2019-04-23T08:36:34.242Z,163.12
2019-04-23T08:38:57.043Z,163.05
2019-04-23T08:41:44.624Z,163.62
2019-04-23T08:44:09.172Z,164.28
2019-04-23T08:46:56.836Z,163.07
2019-04-23T08:49:41.988Z,164.30
2019-04-23T08:57:14.449Z,164.77
2019-04-23T08:59:38.841Z,165.43
2019-04-23T09:02:18.174Z,163.68
2019-04-23T09:04:31.230Z,164.07
2019-04-23T09:07:09.624Z,164.07
2019-04-23T09:12:07.017Z,164.18
2019-04-23T09:14:38.619Z,164.97
2019-04-23T09:17:11.149Z,168.87
2019-04-23T09:20:03.689Z,168.50
2019-04-23T09:22:14.572Z,167.53
2019-04-23T09:24:41.525Z,168.28
2019-04-23T09:27:18.036Z,170.47
2019-04-23T09:29:45.781Z,166.92
2019-04-23T09:35:20.982Z,166.07
2019-04-23T09:38:21.804Z,168.37
2019-04-23T09:41:06.942Z,165.60
2019-04-23T09:43:38.200Z,165.82
2019-04-23T09:46:36.008Z,165.82
2019-04-23T09:49:18.801Z,166.80
2019-04-23T09:51:38.551Z,166.37
2019-04-23T09:54:09.556Z,168.57
2019-04-23T09:56:44.624Z,167.82
2019-04-23T09:59:17.677Z,166.70
2019-04-23T10:01:40.928Z,169.47
2019-04-23T10:04:00.113Z,167.00
2019-04-23T10:06:23.308Z,167.25
2019-04-23T10:08:53.824Z,167.13
2019-04-23T10:11:18.179Z,166.90
2019-04-23T10:13:46.397Z,168.70
2019-04-23T10:16:17.154Z,168.00
2019-04-23T10:18:44.883Z,167.65
2019-04-23T10:21:13.119Z,168.43
2019-04-23T10:23:41.221Z,167.60
2019-04-23T10:26:09.981Z,168.47
2019-04-23T10:28:42.214Z,168.60
2019-04-23T10:31:12.733Z,166.18
2019-04-23T10:33:46.116Z,169.70
2019-04-23T10:36:19.059Z,167.90
2019-04-23T10:38:54.036Z,171.98
2019-04-23T10:41:22.320Z,170.45
2019-04-23T10:44:05.035Z,169.70
2019-04-23T10:47:12.203Z,169.43
2019-04-23T10:50:07.398Z,167.70
2019-04-23T10:52:32.110Z,169.40
2019-04-23T10:55:06.764Z,171.68
2019-04-23T10:57:31.206Z,171.18
2019-04-23T10:59:58.553Z,175.65
2019-04-23T11:02:51.760Z,172.75
2019-04-23T11:05:29.053Z,170.00
2019-04-23T11:08:02.300Z,171.70
2019-04-23T11:10:32.862Z,176.20
2019-04-23T11:13:21.616Z,169.43
2019-04-23T11:16:27.433Z,170.35
2019-04-23T11:18:02.860Z,169.15
2019-04-23T11:20:43.791Z,169.20
2019-04-23T11:23:04.860Z,171.77
2019-04-23T11:28:17.987Z,169.10
2019-04-23T11:31:04.445Z,169.07
2019-04-23T11:33:22.079Z,167.95
2019-04-23T11:36:04.184Z,169.15
2019-04-23T11:38:48.617Z,173.00
2019-04-23T11:40:41.960Z,171.28
2019-04-23T11:43:20.305Z,170.72
2019-04-23T11:51:26.301Z,173.55
2019-04-23T11:53:36.997Z,175.22
2019-04-23T11:56:09.004Z,176.00
2019-04-23T12:04:24.804Z,174.40
2019-04-23T12:07:06.230Z,172.72
2019-04-23T12:09:41.554Z,175.05
2019-04-23T12:12:02.356Z,175.32
2019-04-23T12:15:11.709Z,176.15
2019-04-23T12:22:28.456Z,171.90
2019-04-23T12:27:27.578Z,174.05
2019-04-23T12:29:52.745Z,176.82
2019-04-23T12:35:35.203Z,175.07
2019-04-23T12:38:06.976Z,175.95
2019-04-23T12:43:12.718Z,177.17
2019-04-23T12:53:20.602Z,173.53
2019-04-23T12:56:04.546Z,173.47
2019-04-23T12:58:33.939Z,172.90
2019-04-23T13:00:58.443Z,174.60
2019-04-23T13:05:47.738Z,174.53
2019-04-23T13:08:36.126Z,176.93
2019-04-23T13:10:52.798Z,174.02
2019-04-23T13:15:53.248Z,175.75
2019-04-23T13:18:26.820Z,176.37
2019-04-23T13:20:47.939Z,173.35
2019-04-23T13:23:22.131Z,171.53
2019-04-23T13:28:30.976Z,170.92
2019-04-23T13:30:59.075Z,172.90
2019-04-23T13:33:35.252Z,172.65
2019-04-23T13:36:01.686Z,173.25
2019-04-23T13:38:32.133Z,171.98
2019-04-23T13:41:04.651Z,174.38
2019-04-23T13:43:38.054Z,172.20
2019-04-23T13:48:23.198Z,174.25
2019-04-23T13:50:59.453Z,172.80
2019-04-23T13:55:54.698Z,172.02
2019-04-23T13:58:34.488Z,172.02
2019-04-23T14:01:14.003Z,172.93
2019-04-23T14:03:41.250Z,174.60
2019-04-23T14:06:22.959Z,172.02
2019-04-23T14:08:50.443Z,172.65
2019-04-23T14:16:11.660Z,175.62
2019-04-23T14:18:51.551Z,176.93
2019-04-23T14:21:15.972Z,170.82
2019-04-23T14:33:52.644Z,174.38
2019-04-23T14:36:15.046Z,173.85
2019-04-23T14:38:44.490Z,174.35
2019-04-23T14:41:21.376Z,171.98
2019-04-23T14:43:48.737Z,175.75
2019-04-23T14:51:22.903Z,175.30
2019-04-23T14:53:46.337Z,173.47
2019-04-23T14:56:20.160Z,170.28
2019-04-23T15:03:50.532Z,172.02
2019-04-23T15:06:27.822Z,171.05
2019-04-23T15:11:34.623Z,173.40
2019-04-23T15:13:51.948Z,174.32
2019-04-23T15:19:12.366Z,173.05
2019-04-23T15:21:51.684Z,171.70
2019-04-23T15:28:37.272Z,172.75
2019-04-23T15:31:26.851Z,170.50
2019-04-23T15:34:00.935Z,177.17
2019-04-23T15:39:07.945Z,172.02
2019-04-23T15:43:57.758Z,172.28
2019-04-23T15:46:25.303Z,170.70
2019-04-23T15:49:01.279Z,170.70
2019-04-23T15:51:28.306Z,174.30
2019-04-23T15:53:51.003Z,170.87
2019-04-23T15:56:35.818Z,171.70
2019-04-23T16:01:29.383Z,172.10
2019-04-23T16:03:29.399Z,174.57
2019-04-23T16:05:57.440Z,174.12
2019-04-23T16:14:10.868Z,173.13
2019-04-23T16:16:31.483Z,169.60
2019-04-23T16:19:07.989Z,171.32
2019-04-23T16:21:48.361Z,171.87
2019-04-23T16:24:05.968Z,169.25
2019-04-23T16:26:40.564Z,173.72
2019-04-23T16:29:25.478Z,170.70
2019-04-23T16:31:41.384Z,173.17
2019-04-23T16:36:59.499Z,174.18
2019-04-23T16:39:48.828Z,171.53
2019-04-23T16:42:08.828Z,176.75
2019-04-23T16:44:38.284Z,174.38
2019-04-23T16:47:04.654Z,173.93
2019-04-23T16:52:01.323Z,172.82
2019-04-23T16:54:50.988Z,171.00
2019-04-23T16:59:24.716Z,170.38
2019-04-23T17:02:12.328Z,170.02
2019-04-23T17:04:32.704Z,168.68
2019-04-23T17:06:57.830Z,167.68
2019-04-23T17:09:26.376Z,168.52
2019-04-23T17:12:04.611Z,171.20
2019-04-23T17:14:23.197Z,169.40
2019-04-23T17:16:56.948Z,171.28
2019-04-23T17:19:33.305Z,169.28
2019-04-23T17:21:59.984Z,169.02
2019-04-23T17:24:40.478Z,172.43
2019-04-23T17:27:03.664Z,171.37
2019-04-23T17:29:28.281Z,169.28
2019-04-23T17:32:05.790Z,168.68
2019-04-23T17:37:21.698Z,168.75
2019-04-23T17:40:19.850Z,168.62
2019-04-23T17:43:06.507Z,168.72
2019-04-23T17:45:42.367Z,168.07
2019-04-23T17:48:15.747Z,170.02
2019-04-23T17:53:22.327Z,169.90
2019-04-23T17:58:37.228Z,170.70
2019-04-23T18:04:02.261Z,171.28
2019-04-23T18:06:37.909Z,168.78
2019-04-23T18:09:07.696Z,172.93
2019-04-23T18:11:29.894Z,170.75
2019-04-23T18:22:04.996Z,170.07
2019-04-23T18:24:42.831Z,171.05
2019-04-23T18:27:40.618Z,168.90
2019-04-23T18:30:15.735Z,171.55
2019-04-23T18:33:44.307Z,172.35
2019-04-23T18:44:15.489Z,170.55
2019-04-23T18:49:09.452Z,170.47
2019-04-23T18:51:40.517Z,169.80
2019-04-23T18:54:05.485Z,172.28
2019-04-23T18:57:03.351Z,170.90
2019-04-23T18:59:31.286Z,170.15
2019-04-23T19:11:11.103Z,167.00
2019-04-23T19:13:39.884Z,167.95
2019-04-23T19:15:59.769Z,167.18
2019-04-23T19:18:40.476Z,168.80
2019-04-23T19:21:20.779Z,167.93
2019-04-23T19:23:47.236Z,169.55
2019-04-23T19:26:02.578Z,167.82
2019-04-23T19:31:25.177Z,170.32
2019-04-23T19:34:22.742Z,168.90
2019-04-23T19:36:49.236Z,166.47
2019-04-23T19:39:11.915Z,167.47
2019-04-23T19:41:52.491Z,166.10
2019-04-23T19:44:08.969Z,167.77
2019-04-23T19:49:09.832Z,167.90
2019-04-23T19:51:42.776Z,168.90
2019-04-23T19:54:22.027Z,168.80
2019-04-23T19:56:44.810Z,165.57
2019-04-23T19:59:15.363Z,166.47
2019-04-23T20:01:41.615Z,168.87
2019-04-23T20:04:04.454Z,168.05
2019-04-23T20:07:12.585Z,168.10
2019-04-23T20:09:30.764Z,166.00
2019-04-23T20:11:52.782Z,165.45
2019-04-23T20:17:04.418Z,165.70
2019-04-23T20:19:37.705Z,164.52
2019-04-23T20:22:00.099Z,165.90
2019-04-23T20:27:09.263Z,167.10
2019-04-23T20:30:15.832Z,165.43
2019-04-23T20:37:42.321Z,165.75
2019-04-23T20:42:44.552Z,168.07
2019-04-23T20:44:59.101Z,168.22
2019-04-23T20:47:24.468Z,167.07
2019-04-23T20:49:56.805Z,165.95
2019-04-23T20:52:20.427Z,167.00
2019-04-23T20:55:02.040Z,166.82
2019-04-23T20:58:02.429Z,168.35
2019-04-23T21:00:30.410Z,169.40
2019-04-23T21:05:22.800Z,167.80
2019-04-23T21:15:37.509Z,166.00
2019-04-23T21:18:06.220Z,165.15
2019-04-23T21:20:49.502Z,167.32
2019-04-23T21:23:12.502Z,165.05
2019-04-23T21:28:18.080Z,163.57
2019-04-23T21:31:18.943Z,164.70
2019-04-23T21:33:43.530Z,163.40
2019-04-23T21:36:38.809Z,164.13
2019-04-23T21:39:23.058Z,164.88
2019-04-23T21:41:56.781Z,163.82
2019-04-23T21:44:18.416Z,166.50
2019-04-23T21:46:55.343Z,163.80
2019-04-23T21:51:49.286Z,165.75
2019-04-23T21:54:17.394Z,164.55
2019-04-23T21:56:48.220Z,164.18
2019-04-23T22:01:54.145Z,164.00
2019-04-23T22:04:39.509Z,163.52
2019-04-23T22:09:22.629Z,164.40
2019-04-23T22:14:17.472Z,163.15
2019-04-23T22:19:27.610Z,164.75
2019-04-23T22:21:50.836Z,164.20
2019-04-23T22:24:12.321Z,168.82
2019-04-23T22:29:18.404Z,164.03
2019-04-23T22:34:22.225Z,165.52
2019-04-23T22:37:01.762Z,164.70
2019-04-23T22:39:17.695Z,164.15
2019-04-23T22:41:59.780Z,164.70
2019-04-23T22:44:20.602Z,163.55
2019-04-23T22:52:06.284Z,166.30
2019-04-23T22:54:35.933Z,167.95
2019-04-23T23:04:51.574Z,163.57
2019-04-23T23:07:07.687Z,163.35
2019-04-23T23:09:54.161Z,163.80
2019-04-23T23:12:14.560Z,162.53
2019-04-23T23:14:47.481Z,162.00
2019-04-23T23:24:43.172Z,163.05
2019-04-23T23:29:42.201Z,160.88
2019-04-23T23:32:11.114Z,162.53
2019-04-23T23:34:58.518Z,161.37
2019-04-23T23:39:35.572Z,161.75
2019-04-23T23:44:43.486Z,162.68
2019-04-23T23:47:07.282Z,161.20
2019-04-23T23:49:38.661Z,162.05
2019-04-23T23:52:19.480Z,161.82
2019-04-23T23:54:25.203Z,163.10
2019-04-23T23:57:13.741Z,161.47
